Rake, Iowa
Current Conditions -  °F | °C
As of 9:35 AM on Thursday 23 Oct 2014 (Local Time) from KFXY Reporting Station
Moderate Fog Moderate Fog  
Wind Chill: 11°   Ceiling: 200
Heat Index: 11°   Visibility: 0.5mi
Dew Point: 11°   Wind: 0mph
Humidity: 100%   Direction: NA
Pressure: 30.03"   Gusts: NA
Location:  43.48°N, 93.92°W
Report Text: KFXY 231435Z AUTO 00000KT 1/2SM FG OVC002 11/11 A3003 RMK AO2
Loading
Personal Weather Stations






























Interactive Weather Map
Tropical Storm Tracking
New forecast layout! Learn more

10-Day Weather Forecast

Advertisements
Track Severe Weather on mobile